sensor_id;sensor_type;location;lat;lon;timestamp;P1;durP1;ratioP1;P2;durP2;ratioP2
31114;SDS011;17764;47.152;9.828;2022-12-17T00:01:03;32.03;;;22.03;;
31114;SDS011;17764;47.152;9.828;2022-12-17T00:03:47;31.53;;;22.40;;
31114;SDS011;17764;47.152;9.828;2022-12-17T00:06:32;33.17;;;22.73;;
31114;SDS011;17764;47.152;9.828;2022-12-17T00:09:17;29.93;;;21.27;;
31114;SDS011;17764;47.152;9.828;2022-12-17T00:12:01;31.57;;;21.93;;
31114;SDS011;17764;47.152;9.828;2022-12-17T00:14:46;33.03;;;22.90;;
31114;SDS011;17764;47.152;9.828;2022-12-17T00:17:31;31.87;;;22.13;;
31114;SDS011;17764;47.152;9.828;2022-12-17T00:20:15;31.40;;;23.20;;
31114;SDS011;17764;47.152;9.828;2022-12-17T00:23:01;35.20;;;22.87;;
31114;SDS011;17764;47.152;9.828;2022-12-17T00:25:52;31.50;;;21.57;;
31114;SDS011;17764;47.152;9.828;2022-12-17T00:28:37;32.73;;;22.57;;
31114;SDS011;17764;47.152;9.828;2022-12-17T00:31:24;29.93;;;21.87;;
31114;SDS011;17764;47.152;9.828;2022-12-17T00:34:09;28.93;;;20.10;;
31114;SDS011;17764;47.152;9.828;2022-12-17T00:36:54;29.07;;;20.70;;
31114;SDS011;17764;47.152;9.828;2022-12-17T00:39:38;31.10;;;21.73;;
31114;SDS011;17764;47.152;9.828;2022-12-17T00:42:23;29.90;;;21.57;;
31114;SDS011;17764;47.152;9.828;2022-12-17T00:45:07;29.40;;;20.70;;
31114;SDS011;17764;47.152;9.828;2022-12-17T00:47:52;27.87;;;20.77;;
31114;SDS011;17764;47.152;9.828;2022-12-17T00:50:37;30.80;;;21.20;;
31114;SDS011;17764;47.152;9.828;2022-12-17T00:53:22;29.73;;;21.33;;
31114;SDS011;17764;47.152;9.828;2022-12-17T00:56:07;29.43;;;20.60;;
31114;SDS011;17764;47.152;9.828;2022-12-17T00:58:51;28.13;;;19.60;;
31114;SDS011;17764;47.152;9.828;2022-12-17T01:01:36;28.67;;;20.10;;
31114;SDS011;17764;47.152;9.828;2022-12-17T01:04:21;27.97;;;19.47;;
31114;SDS011;17764;47.152;9.828;2022-12-17T01:07:05;29.03;;;21.17;;
31114;SDS011;17764;47.152;9.828;2022-12-17T01:09:50;29.20;;;21.20;;
31114;SDS011;17764;47.152;9.828;2022-12-17T01:12:34;29.47;;;20.47;;
31114;SDS011;17764;47.152;9.828;2022-12-17T01:15:19;29.67;;;20.73;;
31114;SDS011;17764;47.152;9.828;2022-12-17T01:18:04;29.50;;;20.73;;
31114;SDS011;17764;47.152;9.828;2022-12-17T01:20:54;27.80;;;20.03;;
31114;SDS011;17764;47.152;9.828;2022-12-17T01:23:39;29.97;;;20.53;;
31114;SDS011;17764;47.152;9.828;2022-12-17T01:26:23;29.90;;;20.63;;
31114;SDS011;17764;47.152;9.828;2022-12-17T01:29:08;28.67;;;20.23;;
31114;SDS011;17764;47.152;9.828;2022-12-17T01:31:53;29.53;;;20.03;;
31114;SDS011;17764;47.152;9.828;2022-12-17T01:34:37;26.50;;;19.17;;
31114;SDS011;17764;47.152;9.828;2022-12-17T01:37:22;28.57;;;20.20;;
31114;SDS011;17764;47.152;9.828;2022-12-17T01:40:07;30.67;;;20.50;;
31114;SDS011;17764;47.152;9.828;2022-12-17T01:43:00;27.33;;;19.30;;
31114;SDS011;17764;47.152;9.828;2022-12-17T01:45:46;26.83;;;19.80;;
31114;SDS011;17764;47.152;9.828;2022-12-17T01:49:05;28.53;;;20.20;;
31114;SDS011;17764;47.152;9.828;2022-12-17T01:51:43;28.37;;;20.03;;
31114;SDS011;17764;47.152;9.828;2022-12-17T01:54:28;27.93;;;20.33;;
31114;SDS011;17764;47.152;9.828;2022-12-17T01:57:13;31.57;;;21.77;;
31114;SDS011;17764;47.152;9.828;2022-12-17T02:02:43;28.80;;;20.67;;
31114;SDS011;17764;47.152;9.828;2022-12-17T02:05:40;28.73;;;19.87;;
31114;SDS011;17764;47.152;9.828;2022-12-17T02:11:17;27.97;;;20.40;;
31114;SDS011;17764;47.152;9.828;2022-12-17T02:17:05;27.43;;;19.37;;
31114;SDS011;17764;47.152;9.828;2022-12-17T02:19:55;27.40;;;20.00;;
31114;SDS011;17764;47.152;9.828;2022-12-17T02:22:55;25.03;;;18.57;;
31114;SDS011;17764;47.152;9.828;2022-12-17T02:25:47;25.20;;;18.67;;
31114;SDS011;17764;47.152;9.828;2022-12-17T02:28:33;27.00;;;19.37;;
31114;SDS011;17764;47.152;9.828;2022-12-17T02:31:18;25.33;;;18.77;;
31114;SDS011;17764;47.152;9.828;2022-12-17T02:34:04;25.57;;;18.77;;
31114;SDS011;17764;47.152;9.828;2022-12-17T02:36:48;26.53;;;19.20;;
31114;SDS011;17764;47.152;9.828;2022-12-17T02:39:33;28.27;;;19.80;;
31114;SDS011;17764;47.152;9.828;2022-12-17T02:42:18;25.10;;;18.03;;
31114;SDS011;17764;47.152;9.828;2022-12-17T02:45:03;26.90;;;19.70;;
31114;SDS011;17764;47.152;9.828;2022-12-17T02:47:48;27.70;;;19.53;;
31114;SDS011;17764;47.152;9.828;2022-12-17T02:50:35;28.57;;;20.13;;
31114;SDS011;17764;47.152;9.828;2022-12-17T02:53:20;25.97;;;18.90;;
31114;SDS011;17764;47.152;9.828;2022-12-17T02:56:04;26.60;;;19.67;;
31114;SDS011;17764;47.152;9.828;2022-12-17T02:58:49;25.53;;;18.23;;
31114;SDS011;17764;47.152;9.828;2022-12-17T03:01:34;27.53;;;19.43;;
31114;SDS011;17764;47.152;9.828;2022-12-17T03:04:18;25.20;;;17.80;;
31114;SDS011;17764;47.152;9.828;2022-12-17T03:07:20;26.37;;;19.80;;
31114;SDS011;17764;47.152;9.828;2022-12-17T03:10:04;26.50;;;19.30;;
31114;SDS011;17764;47.152;9.828;2022-12-17T03:12:49;26.43;;;19.40;;
31114;SDS011;17764;47.152;9.828;2022-12-17T03:15:34;28.23;;;19.80;;
31114;SDS011;17764;47.152;9.828;2022-12-17T03:18:18;27.20;;;20.20;;
31114;SDS011;17764;47.152;9.828;2022-12-17T03:21:03;28.33;;;20.57;;
31114;SDS011;17764;47.152;9.828;2022-12-17T03:23:47;27.50;;;19.37;;
31114;SDS011;17764;47.152;9.828;2022-12-17T03:26:32;25.90;;;18.93;;
31114;SDS011;17764;47.152;9.828;2022-12-17T03:29:16;24.40;;;17.90;;
31114;SDS011;17764;47.152;9.828;2022-12-17T03:32:01;25.30;;;18.63;;
31114;SDS011;17764;47.152;9.828;2022-12-17T03:34:46;27.87;;;19.57;;
31114;SDS011;17764;47.152;9.828;2022-12-17T03:37:30;29.97;;;19.93;;
31114;SDS011;17764;47.152;9.828;2022-12-17T03:40:15;27.43;;;19.70;;
31114;SDS011;17764;47.152;9.828;2022-12-17T03:43:06;27.40;;;18.73;;
31114;SDS011;17764;47.152;9.828;2022-12-17T03:45:54;25.70;;;19.80;;
31114;SDS011;17764;47.152;9.828;2022-12-17T03:48:39;25.57;;;19.07;;
31114;SDS011;17764;47.152;9.828;2022-12-17T03:51:24;27.73;;;20.17;;
31114;SDS011;17764;47.152;9.828;2022-12-17T03:54:08;31.47;;;21.10;;
31114;SDS011;17764;47.152;9.828;2022-12-17T03:56:53;27.70;;;20.47;;
31114;SDS011;17764;47.152;9.828;2022-12-17T03:59:37;27.77;;;19.67;;
31114;SDS011;17764;47.152;9.828;2022-12-17T04:02:22;30.27;;;21.00;;
31114;SDS011;17764;47.152;9.828;2022-12-17T04:05:06;26.33;;;19.60;;
31114;SDS011;17764;47.152;9.828;2022-12-17T04:07:51;29.13;;;20.33;;
31114;SDS011;17764;47.152;9.828;2022-12-17T04:10:36;27.17;;;20.60;;
31114;SDS011;17764;47.152;9.828;2022-12-17T04:13:21;29.67;;;20.70;;
31114;SDS011;17764;47.152;9.828;2022-12-17T04:16:05;30.97;;;21.13;;
31114;SDS011;17764;47.152;9.828;2022-12-17T04:18:50;27.27;;;19.50;;
31114;SDS011;17764;47.152;9.828;2022-12-17T04:21:35;28.93;;;21.20;;
31114;SDS011;17764;47.152;9.828;2022-12-17T04:24:19;27.87;;;19.83;;
31114;SDS011;17764;47.152;9.828;2022-12-17T04:27:04;29.53;;;21.13;;
31114;SDS011;17764;47.152;9.828;2022-12-17T04:29:48;27.63;;;20.03;;
31114;SDS011;17764;47.152;9.828;2022-12-17T04:32:33;27.97;;;20.30;;
31114;SDS011;17764;47.152;9.828;2022-12-17T04:35:17;27.57;;;19.97;;
31114;SDS011;17764;47.152;9.828;2022-12-17T04:38:02;29.93;;;20.80;;
31114;SDS011;17764;47.152;9.828;2022-12-17T04:40:46;29.53;;;20.53;;
31114;SDS011;17764;47.152;9.828;2022-12-17T04:43:32;33.00;;;21.57;;
31114;SDS011;17764;47.152;9.828;2022-12-17T04:46:16;30.33;;;20.53;;
31114;SDS011;17764;47.152;9.828;2022-12-17T04:49:01;31.67;;;21.60;;
31114;SDS011;17764;47.152;9.828;2022-12-17T04:51:45;30.47;;;20.97;;
31114;SDS011;17764;47.152;9.828;2022-12-17T04:54:30;28.50;;;21.17;;
31114;SDS011;17764;47.152;9.828;2022-12-17T04:57:15;30.53;;;20.80;;
31114;SDS011;17764;47.152;9.828;2022-12-17T04:59:59;30.07;;;21.70;;
31114;SDS011;17764;47.152;9.828;2022-12-17T05:02:44;28.23;;;20.17;;
31114;SDS011;17764;47.152;9.828;2022-12-17T05:05:28;29.40;;;21.70;;
31114;SDS011;17764;47.152;9.828;2022-12-17T05:08:13;30.47;;;21.30;;
31114;SDS011;17764;47.152;9.828;2022-12-17T05:11:03;30.23;;;20.87;;
31114;SDS011;17764;47.152;9.828;2022-12-17T05:13:48;30.07;;;20.67;;
31114;SDS011;17764;47.152;9.828;2022-12-17T05:16:33;28.93;;;20.30;;
31114;SDS011;17764;47.152;9.828;2022-12-17T05:19:17;28.50;;;20.73;;
31114;SDS011;17764;47.152;9.828;2022-12-17T05:22:02;30.23;;;21.23;;
31114;SDS011;17764;47.152;9.828;2022-12-17T05:24:47;30.53;;;22.60;;
31114;SDS011;17764;47.152;9.828;2022-12-17T05:27:31;31.27;;;21.87;;
31114;SDS011;17764;47.152;9.828;2022-12-17T05:30:16;31.37;;;22.47;;
31114;SDS011;17764;47.152;9.828;2022-12-17T05:33:01;32.43;;;22.17;;
31114;SDS011;17764;47.152;9.828;2022-12-17T05:36:03;31.00;;;21.60;;
31114;SDS011;17764;47.152;9.828;2022-12-17T05:38:48;32.83;;;22.73;;
31114;SDS011;17764;47.152;9.828;2022-12-17T05:41:33;34.47;;;23.43;;
31114;SDS011;17764;47.152;9.828;2022-12-17T05:44:18;32.40;;;22.90;;
31114;SDS011;17764;47.152;9.828;2022-12-17T05:47:02;37.13;;;24.60;;
31114;SDS011;17764;47.152;9.828;2022-12-17T05:49:47;33.33;;;23.13;;
31114;SDS011;17764;47.152;9.828;2022-12-17T05:52:32;34.03;;;24.00;;
31114;SDS011;17764;47.152;9.828;2022-12-17T05:55:16;32.97;;;23.30;;
31114;SDS011;17764;47.152;9.828;2022-12-17T05:58:05;34.50;;;24.53;;
31114;SDS011;17764;47.152;9.828;2022-12-17T06:00:54;36.00;;;24.43;;
31114;SDS011;17764;47.152;9.828;2022-12-17T06:03:39;34.63;;;23.63;;
31114;SDS011;17764;47.152;9.828;2022-12-17T06:06:23;31.90;;;22.97;;
31114;SDS011;17764;47.152;9.828;2022-12-17T06:09:08;31.80;;;22.90;;
31114;SDS011;17764;47.152;9.828;2022-12-17T06:11:52;32.57;;;22.70;;
31114;SDS011;17764;47.152;9.828;2022-12-17T06:14:37;34.23;;;23.33;;
31114;SDS011;17764;47.152;9.828;2022-12-17T06:17:21;32.77;;;23.43;;
31114;SDS011;17764;47.152;9.828;2022-12-17T06:20:06;32.20;;;23.13;;
31114;SDS011;17764;47.152;9.828;2022-12-17T06:22:58;36.03;;;24.30;;
31114;SDS011;17764;47.152;9.828;2022-12-17T06:25:43;33.90;;;23.80;;
31114;SDS011;17764;47.152;9.828;2022-12-17T06:28:27;31.87;;;23.17;;
31114;SDS011;17764;47.152;9.828;2022-12-17T06:31:12;34.93;;;23.43;;
31114;SDS011;17764;47.152;9.828;2022-12-17T06:33:57;35.03;;;24.60;;
31114;SDS011;17764;47.152;9.828;2022-12-17T06:36:41;31.23;;;23.77;;
31114;SDS011;17764;47.152;9.828;2022-12-17T06:39:26;30.40;;;22.83;;
31114;SDS011;17764;47.152;9.828;2022-12-17T06:42:10;30.70;;;23.07;;
31114;SDS011;17764;47.152;9.828;2022-12-17T06:44:55;33.27;;;23.30;;
31114;SDS011;17764;47.152;9.828;2022-12-17T06:47:40;35.10;;;23.63;;
31114;SDS011;17764;47.152;9.828;2022-12-17T06:50:24;34.60;;;23.60;;
31114;SDS011;17764;47.152;9.828;2022-12-17T06:53:09;32.53;;;23.70;;
31114;SDS011;17764;47.152;9.828;2022-12-17T06:55:55;32.77;;;23.63;;
31114;SDS011;17764;47.152;9.828;2022-12-17T06:58:40;31.10;;;22.43;;
31114;SDS011;17764;47.152;9.828;2022-12-17T07:01:25;29.77;;;21.83;;
31114;SDS011;17764;47.152;9.828;2022-12-17T07:04:10;30.17;;;21.73;;
31114;SDS011;17764;47.152;9.828;2022-12-17T07:06:55;34.07;;;22.73;;
31114;SDS011;17764;47.152;9.828;2022-12-17T07:09:40;29.77;;;22.17;;
31114;SDS011;17764;47.152;9.828;2022-12-17T07:12:25;30.67;;;21.50;;
31114;SDS011;17764;47.152;9.828;2022-12-17T07:15:09;32.33;;;22.00;;
31114;SDS011;17764;47.152;9.828;2022-12-17T07:17:54;30.10;;;22.13;;
31114;SDS011;17764;47.152;9.828;2022-12-17T07:20:39;29.67;;;20.97;;
31114;SDS011;17764;47.152;9.828;2022-12-17T07:23:24;28.83;;;20.83;;
31114;SDS011;17764;47.152;9.828;2022-12-17T07:26:08;29.20;;;20.80;;
31114;SDS011;17764;47.152;9.828;2022-12-17T07:28:53;29.77;;;21.10;;
31114;SDS011;17764;47.152;9.828;2022-12-17T07:31:37;31.57;;;20.97;;
31114;SDS011;17764;47.152;9.828;2022-12-17T07:34:22;28.07;;;20.53;;
31114;SDS011;17764;47.152;9.828;2022-12-17T07:37:07;28.90;;;20.93;;
31114;SDS011;17764;47.152;9.828;2022-12-17T07:39:51;28.43;;;20.90;;
31114;SDS011;17764;47.152;9.828;2022-12-17T07:42:37;28.67;;;20.03;;
31114;SDS011;17764;47.152;9.828;2022-12-17T07:45:22;26.43;;;19.20;;
31114;SDS011;17764;47.152;9.828;2022-12-17T07:48:14;27.77;;;19.83;;
31114;SDS011;17764;47.152;9.828;2022-12-17T07:50:59;26.77;;;19.73;;
31114;SDS011;17764;47.152;9.828;2022-12-17T07:53:44;27.10;;;19.43;;
31114;SDS011;17764;47.152;9.828;2022-12-17T07:56:29;28.37;;;19.50;;
31114;SDS011;17764;47.152;9.828;2022-12-17T07:59:13;25.87;;;19.43;;
31114;SDS011;17764;47.152;9.828;2022-12-17T08:01:58;28.93;;;20.20;;
31114;SDS011;17764;47.152;9.828;2022-12-17T08:04:43;29.40;;;20.23;;
31114;SDS011;17764;47.152;9.828;2022-12-17T08:07:27;27.23;;;20.13;;
31114;SDS011;17764;47.152;9.828;2022-12-17T08:10:12;28.67;;;20.07;;
31114;SDS011;17764;47.152;9.828;2022-12-17T08:12:57;28.80;;;20.67;;
31114;SDS011;17764;47.152;9.828;2022-12-17T08:15:42;27.40;;;20.87;;
31114;SDS011;17764;47.152;9.828;2022-12-17T08:18:27;29.53;;;21.30;;
31114;SDS011;17764;47.152;9.828;2022-12-17T08:21:12;28.83;;;20.13;;
31114;SDS011;17764;47.152;9.828;2022-12-17T08:23:57;28.23;;;20.93;;
31114;SDS011;17764;47.152;9.828;2022-12-17T08:26:42;29.53;;;20.73;;
31114;SDS011;17764;47.152;9.828;2022-12-17T08:29:26;29.03;;;19.63;;
31114;SDS011;17764;47.152;9.828;2022-12-17T08:32:11;28.50;;;19.80;;
31114;SDS011;17764;47.152;9.828;2022-12-17T08:34:55;29.00;;;20.57;;
31114;SDS011;17764;47.152;9.828;2022-12-17T08:37:40;26.90;;;19.43;;
31114;SDS011;17764;47.152;9.828;2022-12-17T08:40:25;28.30;;;19.23;;
31114;SDS011;17764;47.152;9.828;2022-12-17T08:43:09;29.93;;;19.47;;
31114;SDS011;17764;47.152;9.828;2022-12-17T08:45:54;26.40;;;18.90;;
31114;SDS011;17764;47.152;9.828;2022-12-17T08:48:38;23.77;;;17.73;;
31114;SDS011;17764;47.152;9.828;2022-12-17T08:51:23;26.67;;;17.87;;
31114;SDS011;17764;47.152;9.828;2022-12-17T08:54:08;24.97;;;18.73;;
31114;SDS011;17764;47.152;9.828;2022-12-17T08:56:53;28.17;;;19.10;;
31114;SDS011;17764;47.152;9.828;2022-12-17T08:59:38;29.63;;;20.83;;
31114;SDS011;17764;47.152;9.828;2022-12-17T09:02:23;31.37;;;21.23;;
31114;SDS011;17764;47.152;9.828;2022-12-17T09:05:08;31.77;;;21.80;;
31114;SDS011;17764;47.152;9.828;2022-12-17T09:07:57;30.00;;;21.70;;
31114;SDS011;17764;47.152;9.828;2022-12-17T09:10:42;30.90;;;21.17;;
31114;SDS011;17764;47.152;9.828;2022-12-17T09:13:27;32.43;;;22.50;;
31114;SDS011;17764;47.152;9.828;2022-12-17T09:16:11;32.10;;;21.87;;
31114;SDS011;17764;47.152;9.828;2022-12-17T09:18:56;34.00;;;23.63;;
31114;SDS011;17764;47.152;9.828;2022-12-17T09:21:41;33.77;;;23.83;;
31114;SDS011;17764;47.152;9.828;2022-12-17T09:24:26;34.40;;;24.57;;
31114;SDS011;17764;47.152;9.828;2022-12-17T09:27:10;37.53;;;24.60;;
31114;SDS011;17764;47.152;9.828;2022-12-17T09:29:55;35.73;;;24.37;;
31114;SDS011;17764;47.152;9.828;2022-12-17T09:32:39;35.23;;;24.63;;
31114;SDS011;17764;47.152;9.828;2022-12-17T09:35:25;35.13;;;23.63;;
31114;SDS011;17764;47.152;9.828;2022-12-17T09:38:10;33.67;;;24.87;;
31114;SDS011;17764;47.152;9.828;2022-12-17T09:40:55;39.57;;;24.93;;
31114;SDS011;17764;47.152;9.828;2022-12-17T09:43:44;32.53;;;24.00;;
31114;SDS011;17764;47.152;9.828;2022-12-17T09:49:21;37.87;;;25.53;;
31114;SDS011;17764;47.152;9.828;2022-12-17T09:52:25;34.97;;;25.03;;
31114;SDS011;17764;47.152;9.828;2022-12-17T09:55:14;36.20;;;26.00;;
31114;SDS011;17764;47.152;9.828;2022-12-17T09:58:01;39.40;;;25.73;;
31114;SDS011;17764;47.152;9.828;2022-12-17T10:00:59;36.13;;;25.00;;
31114;SDS011;17764;47.152;9.828;2022-12-17T10:03:44;34.43;;;24.30;;
31114;SDS011;17764;47.152;9.828;2022-12-17T10:06:30;36.97;;;25.57;;
31114;SDS011;17764;47.152;9.828;2022-12-17T10:09:16;36.33;;;25.27;;
31114;SDS011;17764;47.152;9.828;2022-12-17T10:12:11;38.43;;;25.77;;
31114;SDS011;17764;47.152;9.828;2022-12-17T10:14:56;37.17;;;24.83;;
31114;SDS011;17764;47.152;9.828;2022-12-17T10:17:41;36.20;;;24.83;;
31114;SDS011;17764;47.152;9.828;2022-12-17T10:23:23;35.10;;;23.77;;
31114;SDS011;17764;47.152;9.828;2022-12-17T10:26:08;37.07;;;26.40;;
31114;SDS011;17764;47.152;9.828;2022-12-17T10:29:00;39.83;;;27.23;;
31114;SDS011;17764;47.152;9.828;2022-12-17T10:31:45;39.77;;;26.30;;
31114;SDS011;17764;47.152;9.828;2022-12-17T10:34:33;37.10;;;26.47;;
31114;SDS011;17764;47.152;9.828;2022-12-17T10:37:18;39.17;;;26.47;;
31114;SDS011;17764;47.152;9.828;2022-12-17T10:40:12;37.87;;;26.70;;
31114;SDS011;17764;47.152;9.828;2022-12-17T10:42:58;40.23;;;26.90;;
31114;SDS011;17764;47.152;9.828;2022-12-17T10:45:42;40.50;;;27.73;;
31114;SDS011;17764;47.152;9.828;2022-12-17T10:48:35;43.43;;;28.03;;
31114;SDS011;17764;47.152;9.828;2022-12-17T10:54:09;39.43;;;27.50;;
31114;SDS011;17764;47.152;9.828;2022-12-17T10:57:01;42.93;;;29.03;;
31114;SDS011;17764;47.152;9.828;2022-12-17T10:59:45;35.13;;;25.63;;
31114;SDS011;17764;47.152;9.828;2022-12-17T11:02:30;38.27;;;26.37;;
31114;SDS011;17764;47.152;9.828;2022-12-17T11:05:28;38.93;;;26.53;;
31114;SDS011;17764;47.152;9.828;2022-12-17T11:08:14;36.67;;;26.20;;
31114;SDS011;17764;47.152;9.828;2022-12-17T11:11:03;36.13;;;25.33;;
31114;SDS011;17764;47.152;9.828;2022-12-17T11:13:48;37.07;;;25.27;;
31114;SDS011;17764;47.152;9.828;2022-12-17T11:16:35;34.70;;;25.10;;
31114;SDS011;17764;47.152;9.828;2022-12-17T11:19:29;34.93;;;23.53;;
31114;SDS011;17764;47.152;9.828;2022-12-17T11:22:24;31.47;;;22.60;;
31114;SDS011;17764;47.152;9.828;2022-12-17T11:28:25;31.80;;;22.33;;
31114;SDS011;17764;47.152;9.828;2022-12-17T11:33:55;28.37;;;20.83;;
31114;SDS011;17764;47.152;9.828;2022-12-17T11:37:44;30.40;;;21.00;;
31114;SDS011;17764;47.152;9.828;2022-12-17T11:39:59;31.23;;;21.47;;
31114;SDS011;17764;47.152;9.828;2022-12-17T11:42:49;31.07;;;21.53;;
31114;SDS011;17764;47.152;9.828;2022-12-17T11:45:39;28.10;;;20.33;;
31114;SDS011;17764;47.152;9.828;2022-12-17T11:48:34;30.33;;;20.63;;
31114;SDS011;17764;47.152;9.828;2022-12-17T11:51:26;31.20;;;22.23;;
31114;SDS011;17764;47.152;9.828;2022-12-17T11:54:27;28.90;;;20.80;;
31114;SDS011;17764;47.152;9.828;2022-12-17T11:57:22;30.83;;;21.13;;
31114;SDS011;17764;47.152;9.828;2022-12-17T12:00:16;27.13;;;19.77;;
31114;SDS011;17764;47.152;9.828;2022-12-17T12:03:09;28.20;;;19.60;;
31114;SDS011;17764;47.152;9.828;2022-12-17T12:06:00;26.03;;;17.20;;
31114;SDS011;17764;47.152;9.828;2022-12-17T12:08:52;23.77;;;18.10;;
31114;SDS011;17764;47.152;9.828;2022-12-17T12:11:40;25.77;;;17.90;;
31114;SDS011;17764;47.152;9.828;2022-12-17T12:20:43;28.47;;;20.67;;
31114;SDS011;17764;47.152;9.828;2022-12-17T12:26:55;25.80;;;18.20;;
31114;SDS011;17764;47.152;9.828;2022-12-17T12:32:49;28.70;;;19.97;;
31114;SDS011;17764;47.152;9.828;2022-12-17T12:35:38;29.27;;;21.27;;
31114;SDS011;17764;47.152;9.828;2022-12-17T12:38:26;28.53;;;20.87;;
31114;SDS011;17764;47.152;9.828;2022-12-17T12:44:18;29.43;;;21.17;;
31114;SDS011;17764;47.152;9.828;2022-12-17T12:47:08;28.63;;;21.03;;
31114;SDS011;17764;47.152;9.828;2022-12-17T12:53:00;27.13;;;19.13;;
31114;SDS011;17764;47.152;9.828;2022-12-17T12:55:46;26.43;;;18.43;;
31114;SDS011;17764;47.152;9.828;2022-12-17T12:58:31;22.43;;;17.17;;
31114;SDS011;17764;47.152;9.828;2022-12-17T13:01:16;23.97;;;16.50;;
31114;SDS011;17764;47.152;9.828;2022-12-17T13:04:20;23.57;;;16.50;;
31114;SDS011;17764;47.152;9.828;2022-12-17T13:07:17;20.77;;;16.07;;
31114;SDS011;17764;47.152;9.828;2022-12-17T13:09:48;25.00;;;17.53;;
31114;SDS011;17764;47.152;9.828;2022-12-17T13:14:55;25.57;;;17.70;;
31114;SDS011;17764;47.152;9.828;2022-12-17T13:17:26;22.00;;;16.90;;
31114;SDS011;17764;47.152;9.828;2022-12-17T13:24:48;21.50;;;15.50;;
31114;SDS011;17764;47.152;9.828;2022-12-17T13:35:24;19.43;;;14.47;;
31114;SDS011;17764;47.152;9.828;2022-12-17T13:38:00;18.47;;;14.20;;
31114;SDS011;17764;47.152;9.828;2022-12-17T13:43:33;20.80;;;14.60;;
31114;SDS011;17764;47.152;9.828;2022-12-17T13:46:03;20.27;;;15.27;;
31114;SDS011;17764;47.152;9.828;2022-12-17T13:48:29;23.27;;;16.03;;
31114;SDS011;17764;47.152;9.828;2022-12-17T13:50:59;22.90;;;16.77;;
31114;SDS011;17764;47.152;9.828;2022-12-17T13:53:26;22.43;;;16.27;;
31114;SDS011;17764;47.152;9.828;2022-12-17T13:55:53;23.07;;;17.60;;
31114;SDS011;17764;47.152;9.828;2022-12-17T13:58:24;26.00;;;18.73;;
31114;SDS011;17764;47.152;9.828;2022-12-17T14:00:51;26.63;;;19.20;;
31114;SDS011;17764;47.152;9.828;2022-12-17T14:03:20;25.93;;;18.57;;
31114;SDS011;17764;47.152;9.828;2022-12-17T14:05:47;23.37;;;17.80;;
31114;SDS011;17764;47.152;9.828;2022-12-17T14:08:16;22.17;;;16.47;;
31114;SDS011;17764;47.152;9.828;2022-12-17T14:10:49;21.90;;;15.27;;
31114;SDS011;17764;47.152;9.828;2022-12-17T14:13:16;21.33;;;14.43;;
31114;SDS011;17764;47.152;9.828;2022-12-17T14:15:47;18.37;;;12.33;;
31114;SDS011;17764;47.152;9.828;2022-12-17T14:18:15;18.67;;;13.47;;
31114;SDS011;17764;47.152;9.828;2022-12-17T14:20:42;17.97;;;13.40;;
31114;SDS011;17764;47.152;9.828;2022-12-17T14:23:13;17.83;;;13.10;;
31114;SDS011;17764;47.152;9.828;2022-12-17T14:25:42;14.93;;;12.23;;
31114;SDS011;17764;47.152;9.828;2022-12-17T14:30:46;17.50;;;13.03;;
31114;SDS011;17764;47.152;9.828;2022-12-17T14:33:29;16.80;;;13.70;;
31114;SDS011;17764;47.152;9.828;2022-12-17T14:35:56;17.97;;;13.13;;
31114;SDS011;17764;47.152;9.828;2022-12-17T14:38:22;17.17;;;12.70;;
31114;SDS011;17764;47.152;9.828;2022-12-17T14:40:49;18.33;;;13.27;;
31114;SDS011;17764;47.152;9.828;2022-12-17T14:43:15;18.20;;;13.77;;
31114;SDS011;17764;47.152;9.828;2022-12-17T14:45:48;18.07;;;13.57;;
31114;SDS011;17764;47.152;9.828;2022-12-17T14:48:35;19.20;;;13.90;;
31114;SDS011;17764;47.152;9.828;2022-12-17T14:51:26;18.57;;;13.20;;
31114;SDS011;17764;47.152;9.828;2022-12-17T14:54:03;19.53;;;14.67;;
31114;SDS011;17764;47.152;9.828;2022-12-17T14:56:29;22.23;;;14.87;;
31114;SDS011;17764;47.152;9.828;2022-12-17T14:58:55;20.80;;;15.63;;
31114;SDS011;17764;47.152;9.828;2022-12-17T15:01:21;23.70;;;16.33;;
31114;SDS011;17764;47.152;9.828;2022-12-17T15:03:47;25.77;;;18.43;;
31114;SDS011;17764;47.152;9.828;2022-12-17T15:06:17;24.80;;;18.10;;
31114;SDS011;17764;47.152;9.828;2022-12-17T15:08:45;25.73;;;18.67;;
31114;SDS011;17764;47.152;9.828;2022-12-17T15:11:12;26.03;;;19.40;;
31114;SDS011;17764;47.152;9.828;2022-12-17T15:13:38;25.40;;;19.07;;
31114;SDS011;17764;47.152;9.828;2022-12-17T15:16:04;25.97;;;19.87;;
31114;SDS011;17764;47.152;9.828;2022-12-17T15:18:30;27.33;;;19.47;;
31114;SDS011;17764;47.152;9.828;2022-12-17T15:20:57;25.93;;;18.97;;
31114;SDS011;17764;47.152;9.828;2022-12-17T15:23:23;26.47;;;18.87;;
31114;SDS011;17764;47.152;9.828;2022-12-17T15:25:49;26.73;;;19.40;;
31114;SDS011;17764;47.152;9.828;2022-12-17T15:28:16;25.07;;;17.50;;
31114;SDS011;17764;47.152;9.828;2022-12-17T15:30:43;25.20;;;17.90;;
31114;SDS011;17764;47.152;9.828;2022-12-17T15:33:09;22.57;;;16.53;;
31114;SDS011;17764;47.152;9.828;2022-12-17T15:35:35;23.27;;;16.67;;
31114;SDS011;17764;47.152;9.828;2022-12-17T15:38:02;21.27;;;15.73;;
31114;SDS011;17764;47.152;9.828;2022-12-17T15:40:28;26.27;;;17.10;;
31114;SDS011;17764;47.152;9.828;2022-12-17T15:42:54;26.57;;;18.87;;
31114;SDS011;17764;47.152;9.828;2022-12-17T15:45:36;26.87;;;18.73;;
31114;SDS011;17764;47.152;9.828;2022-12-17T15:48:02;29.20;;;19.30;;
31114;SDS011;17764;47.152;9.828;2022-12-17T15:50:29;27.17;;;18.77;;
31114;SDS011;17764;47.152;9.828;2022-12-17T15:52:55;24.57;;;18.20;;
31114;SDS011;17764;47.152;9.828;2022-12-17T15:55:21;25.57;;;18.53;;
31114;SDS011;17764;47.152;9.828;2022-12-17T15:57:47;23.23;;;15.27;;
31114;SDS011;17764;47.152;9.828;2022-12-17T16:00:13;22.47;;;16.60;;
31114;SDS011;17764;47.152;9.828;2022-12-17T16:02:39;18.70;;;14.30;;
31114;SDS011;17764;47.152;9.828;2022-12-17T16:05:05;22.27;;;16.20;;
31114;SDS011;17764;47.152;9.828;2022-12-17T16:07:32;21.57;;;15.57;;
31114;SDS011;17764;47.152;9.828;2022-12-17T16:09:58;22.50;;;16.20;;
31114;SDS011;17764;47.152;9.828;2022-12-17T16:12:24;21.30;;;15.37;;
31114;SDS011;17764;47.152;9.828;2022-12-17T16:14:50;23.00;;;16.27;;
31114;SDS011;17764;47.152;9.828;2022-12-17T16:17:16;22.83;;;16.43;;
31114;SDS011;17764;47.152;9.828;2022-12-17T16:19:42;22.93;;;17.40;;
31114;SDS011;17764;47.152;9.828;2022-12-17T16:22:08;23.33;;;16.87;;
31114;SDS011;17764;47.152;9.828;2022-12-17T16:24:34;24.97;;;17.10;;
31114;SDS011;17764;47.152;9.828;2022-12-17T16:27:00;22.67;;;15.73;;
31114;SDS011;17764;47.152;9.828;2022-12-17T16:29:26;22.17;;;16.13;;
31114;SDS011;17764;47.152;9.828;2022-12-17T16:31:52;23.33;;;15.33;;
31114;SDS011;17764;47.152;9.828;2022-12-17T16:34:18;22.77;;;16.33;;
31114;SDS011;17764;47.152;9.828;2022-12-17T16:36:44;23.27;;;16.93;;
31114;SDS011;17764;47.152;9.828;2022-12-17T16:39:13;27.53;;;18.73;;
31114;SDS011;17764;47.152;9.828;2022-12-17T16:41:40;27.43;;;19.40;;
31114;SDS011;17764;47.152;9.828;2022-12-17T16:44:06;28.93;;;21.50;;
31114;SDS011;17764;47.152;9.828;2022-12-17T16:46:33;26.37;;;19.07;;
31114;SDS011;17764;47.152;9.828;2022-12-17T16:49:12;25.93;;;18.70;;
31114;SDS011;17764;47.152;9.828;2022-12-17T16:51:38;27.23;;;18.60;;